Ruo'Ergai, China
Current Conditions -  °F | °C
As of 6:00 AM on Tuesday 25 Nov 2014 (Local Time) from ZLLL Reporting Station
Moderate Fog Moderate Fog  
Wind Chill: 17°   Ceiling: 300
Heat Index: 23°   Visibility: 0.06mi
Dew Point: 21°   Wind: 4mph
Humidity: 93%   Direction: 320°NW
Pressure: 30"   Gusts: NA
Location:  33.58°N, 102.97°E
Report Text: ZLLL 242200Z 32002MPS 300V030 0100 R36/0350N FZFGVV003M05/M06 Q1016 BECMG TL2340 0400 FZFG
Loading
Personal Weather Stations






























Interactive Weather Map New forecast layout! Learn more

10-Day Weather Forecast

Advertisements
Track Severe Weather on mobile